sensor_id;sensor_type;location;lat;lon;timestamp;P1;durP1;ratioP1;P2;durP2;ratioP2
19675;SDS011;39539;52.202;9.876;2023-06-26T06:24:52;4.75;;;4.45;;
19675;SDS011;39539;52.202;9.876;2023-06-26T06:27:18;4.88;;;4.47;;
19675;SDS011;39539;52.202;9.876;2023-06-26T06:29:43;4.40;;;4.13;;
19675;SDS011;39539;52.202;9.876;2023-06-26T06:32:09;4.43;;;4.13;;
19675;SDS011;39539;52.202;9.876;2023-06-26T06:34:34;4.82;;;4.53;;
19675;SDS011;39539;52.202;9.876;2023-06-26T06:36:59;4.22;;;3.92;;
19675;SDS011;39539;52.202;9.876;2023-06-26T06:39:25;4.20;;;3.88;;
19675;SDS011;39539;52.202;9.876;2023-06-26T06:41:50;4.20;;;3.90;;
19675;SDS011;39539;52.202;9.876;2023-06-26T06:44:17;4.18;;;3.92;;
19675;SDS011;39539;52.202;9.876;2023-06-26T06:46:42;4.55;;;4.15;;
19675;SDS011;39539;52.202;9.876;2023-06-26T06:49:08;4.15;;;3.90;;
19675;SDS011;39539;52.202;9.876;2023-06-26T06:51:46;4.20;;;4.00;;
19675;SDS011;39539;52.202;9.876;2023-06-26T06:54:11;3.83;;;3.58;;
19675;SDS011;39539;52.202;9.876;2023-06-26T06:56:37;3.80;;;3.60;;
19675;SDS011;39539;52.202;9.876;2023-06-26T06:59:02;3.97;;;3.78;;
19675;SDS011;39539;52.202;9.876;2023-06-26T07:01:30;3.78;;;3.58;;
19675;SDS011;39539;52.202;9.876;2023-06-26T07:03:56;4.07;;;3.88;;
19675;SDS011;39539;52.202;9.876;2023-06-26T07:06:22;5.10;;;3.70;;
19675;SDS011;39539;52.202;9.876;2023-06-26T07:08:48;4.05;;;3.72;;
19675;SDS011;39539;52.202;9.876;2023-06-26T07:11:13;3.60;;;3.40;;
19675;SDS011;39539;52.202;9.876;2023-06-26T07:13:38;4.13;;;3.85;;
19675;SDS011;39539;52.202;9.876;2023-06-26T07:16:04;4.35;;;3.95;;
19675;SDS011;39539;52.202;9.876;2023-06-26T07:18:29;3.85;;;3.65;;
19675;SDS011;39539;52.202;9.876;2023-06-26T07:20:55;3.90;;;3.60;;
19675;SDS011;39539;52.202;9.876;2023-06-26T07:23:20;3.83;;;3.63;;
19675;SDS011;39539;52.202;9.876;2023-06-26T07:25:45;4.45;;;4.15;;
19675;SDS011;39539;52.202;9.876;2023-06-26T07:28:11;4.07;;;3.88;;
19675;SDS011;39539;52.202;9.876;2023-06-26T07:30:37;4.40;;;4.10;;
19675;SDS011;39539;52.202;9.876;2023-06-26T07:33:02;4.95;;;4.65;;
19675;SDS011;39539;52.202;9.876;2023-06-26T07:35:28;4.30;;;4.00;;
19675;SDS011;39539;52.202;9.876;2023-06-26T07:37:55;4.22;;;3.92;;
19675;SDS011;39539;52.202;9.876;2023-06-26T07:40:20;4.22;;;3.95;;
19675;SDS011;39539;52.202;9.876;2023-06-26T07:42:58;6.75;;;6.25;;
19675;SDS011;39539;52.202;9.876;2023-06-26T07:45:24;3.80;;;3.50;;
19675;SDS011;39539;52.202;9.876;2023-06-26T07:47:49;3.70;;;3.50;;
19675;SDS011;39539;52.202;9.876;2023-06-26T07:50:20;4.25;;;3.95;;
19675;SDS011;39539;52.202;9.876;2023-06-26T07:52:56;3.78;;;3.50;;
19675;SDS011;39539;52.202;9.876;2023-06-26T07:55:34;4.50;;;4.20;;
19675;SDS011;39539;52.202;9.876;2023-06-26T07:58:00;5.30;;;3.78;;
19675;SDS011;39539;52.202;9.876;2023-06-26T08:00:27;3.83;;;3.63;;
19675;SDS011;39539;52.202;9.876;2023-06-26T08:02:52;4.30;;;4.00;;
19675;SDS011;39539;52.202;9.876;2023-06-26T08:05:19;4.25;;;3.92;;
19675;SDS011;39539;52.202;9.876;2023-06-26T08:07:46;4.30;;;4.03;;
19675;SDS011;39539;52.202;9.876;2023-06-26T08:10:13;4.50;;;4.20;;
19675;SDS011;39539;52.202;9.876;2023-06-26T08:12:38;4.38;;;4.00;;
19675;SDS011;39539;52.202;9.876;2023-06-26T08:15:05;4.38;;;4.07;;
19675;SDS011;39539;52.202;9.876;2023-06-26T08:17:31;6.47;;;4.38;;
19675;SDS011;39539;52.202;9.876;2023-06-26T08:19:58;4.18;;;3.80;;
19675;SDS011;39539;52.202;9.876;2023-06-26T08:22:23;4.70;;;4.50;;
19675;SDS011;39539;52.202;9.876;2023-06-26T08:24:49;6.25;;;5.65;;
19675;SDS011;39539;52.202;9.876;2023-06-26T08:27:14;5.55;;;5.18;;
19675;SDS011;39539;52.202;9.876;2023-06-26T08:29:49;4.50;;;4.20;;
19675;SDS011;39539;52.202;9.876;2023-06-26T08:32:14;4.55;;;4.25;;
19675;SDS011;39539;52.202;9.876;2023-06-26T08:34:40;4.60;;;4.30;;
19675;SDS011;39539;52.202;9.876;2023-06-26T08:37:14;4.40;;;4.20;;
19675;SDS011;39539;52.202;9.876;2023-06-26T08:39:45;4.78;;;4.47;;
19675;SDS011;39539;52.202;9.876;2023-06-26T08:42:10;4.95;;;4.60;;
19675;SDS011;39539;52.202;9.876;2023-06-26T08:44:36;4.68;;;4.45;;
19675;SDS011;39539;52.202;9.876;2023-06-26T08:47:01;4.35;;;4.05;;
19675;SDS011;39539;52.202;9.876;2023-06-26T08:49:29;4.93;;;4.50;;
19675;SDS011;39539;52.202;9.876;2023-06-26T08:52:10;4.35;;;4.15;;
19675;SDS011;39539;52.202;9.876;2023-06-26T08:54:50;5.22;;;4.78;;
19675;SDS011;39539;52.202;9.876;2023-06-26T08:57:21;5.15;;;4.85;;
19675;SDS011;39539;52.202;9.876;2023-06-26T08:59:49;5.22;;;4.82;;
19675;SDS011;39539;52.202;9.876;2023-06-26T09:02:16;4.57;;;4.32;;
19675;SDS011;39539;52.202;9.876;2023-06-26T09:04:42;5.13;;;4.63;;
19675;SDS011;39539;52.202;9.876;2023-06-26T09:07:08;5.00;;;4.60;;
19675;SDS011;39539;52.202;9.876;2023-06-26T09:09:34;5.18;;;4.88;;
19675;SDS011;39539;52.202;9.876;2023-06-26T09:12:03;5.22;;;4.78;;
19675;SDS011;39539;52.202;9.876;2023-06-26T09:14:31;5.07;;;4.68;;
19675;SDS011;39539;52.202;9.876;2023-06-26T09:16:57;5.40;;;5.03;;
19675;SDS011;39539;52.202;9.876;2023-06-26T09:19:22;5.22;;;4.90;;
19675;SDS011;39539;52.202;9.876;2023-06-26T09:21:49;5.22;;;4.82;;
19675;SDS011;39539;52.202;9.876;2023-06-26T09:24:16;5.63;;;5.32;;
19675;SDS011;39539;52.202;9.876;2023-06-26T09:26:43;6.15;;;5.68;;
19675;SDS011;39539;52.202;9.876;2023-06-26T09:29:09;13.02;;;6.95;;
19675;SDS011;39539;52.202;9.876;2023-06-26T09:31:38;5.85;;;5.45;;
19675;SDS011;39539;52.202;9.876;2023-06-26T09:34:05;5.40;;;5.00;;
19675;SDS011;39539;52.202;9.876;2023-06-26T09:36:30;6.43;;;4.72;;
19675;SDS011;39539;52.202;9.876;2023-06-26T09:39:01;6.05;;;5.45;;
19675;SDS011;39539;52.202;9.876;2023-06-26T09:41:34;5.75;;;5.25;;
19675;SDS011;39539;52.202;9.876;2023-06-26T09:44:01;5.40;;;5.00;;
19675;SDS011;39539;52.202;9.876;2023-06-26T09:46:33;6.40;;;5.75;;
19675;SDS011;39539;52.202;9.876;2023-06-26T09:49:17;6.38;;;5.88;;
19675;SDS011;39539;52.202;9.876;2023-06-26T09:51:42;6.40;;;5.57;;
19675;SDS011;39539;52.202;9.876;2023-06-26T09:54:15;5.85;;;4.82;;
19675;SDS011;39539;52.202;9.876;2023-06-26T09:56:41;5.70;;;5.30;;
19675;SDS011;39539;52.202;9.876;2023-06-26T09:59:08;6.28;;;5.70;;
19675;SDS011;39539;52.202;9.876;2023-06-26T10:01:41;6.18;;;5.63;;
19675;SDS011;39539;52.202;9.876;2023-06-26T10:04:11;6.38;;;5.97;;
19675;SDS011;39539;52.202;9.876;2023-06-26T10:06:39;6.40;;;5.80;;
19675;SDS011;39539;52.202;9.876;2023-06-26T10:09:10;5.28;;;4.88;;
19675;SDS011;39539;52.202;9.876;2023-06-26T10:11:40;6.18;;;5.60;;
19675;SDS011;39539;52.202;9.876;2023-06-26T10:14:11;5.57;;;5.18;;
19675;SDS011;39539;52.202;9.876;2023-06-26T10:16:38;5.63;;;5.22;;
19675;SDS011;39539;52.202;9.876;2023-06-26T10:19:07;5.68;;;5.28;;
19675;SDS011;39539;52.202;9.876;2023-06-26T10:21:34;6.20;;;5.70;;
19675;SDS011;39539;52.202;9.876;2023-06-26T10:24:00;7.15;;;6.50;;
19675;SDS011;39539;52.202;9.876;2023-06-26T10:26:30;7.57;;;6.90;;
19675;SDS011;39539;52.202;9.876;2023-06-26T10:28:57;7.68;;;6.95;;
19675;SDS011;39539;52.202;9.876;2023-06-26T10:31:25;7.80;;;7.05;;
19675;SDS011;39539;52.202;9.876;2023-06-26T10:33:58;8.30;;;7.53;;
19675;SDS011;39539;52.202;9.876;2023-06-26T10:36:28;8.00;;;7.40;;
19675;SDS011;39539;52.202;9.876;2023-06-26T10:38:59;8.43;;;7.72;;
19675;SDS011;39539;52.202;9.876;2023-06-26T10:41:40;8.88;;;8.13;;
19675;SDS011;39539;52.202;9.876;2023-06-26T10:44:09;8.18;;;7.60;;
19675;SDS011;39539;52.202;9.876;2023-06-26T10:46:52;11.23;;;8.00;;
19675;SDS011;39539;52.202;9.876;2023-06-26T10:49:30;9.20;;;8.43;;
19675;SDS011;39539;52.202;9.876;2023-06-26T10:52:00;10.35;;;9.38;;
19675;SDS011;39539;52.202;9.876;2023-06-26T10:54:30;10.02;;;9.10;;
19675;SDS011;39539;52.202;9.876;2023-06-26T10:56:58;9.48;;;8.77;;
19675;SDS011;39539;52.202;9.876;2023-06-26T10:59:25;10.18;;;9.32;;
19675;SDS011;39539;52.202;9.876;2023-06-26T11:02:01;10.27;;;9.38;;
19675;SDS011;39539;52.202;9.876;2023-06-26T11:07:25;9.30;;;8.52;;
19675;SDS011;39539;52.202;9.876;2023-06-26T11:12:40;8.88;;;6.82;;
19675;SDS011;39539;52.202;9.876;2023-06-26T11:15:10;8.35;;;6.20;;
19675;SDS011;39539;52.202;9.876;2023-06-26T11:17:40;6.55;;;5.95;;
19675;SDS011;39539;52.202;9.876;2023-06-26T11:20:09;7.22;;;6.55;;
19675;SDS011;39539;52.202;9.876;2023-06-26T11:22:38;6.75;;;6.15;;
19675;SDS011;39539;52.202;9.876;2023-06-26T11:25:05;7.63;;;7.03;;
19675;SDS011;39539;52.202;9.876;2023-06-26T11:27:38;7.30;;;6.70;;
19675;SDS011;39539;52.202;9.876;2023-06-26T11:30:09;6.97;;;6.40;;
19675;SDS011;39539;52.202;9.876;2023-06-26T11:32:43;7.57;;;6.88;;
19675;SDS011;39539;52.202;9.876;2023-06-26T11:35:11;7.32;;;6.72;;
19675;SDS011;39539;52.202;9.876;2023-06-26T11:37:51;8.23;;;7.43;;
19675;SDS011;39539;52.202;9.876;2023-06-26T11:40:22;7.13;;;6.63;;
19675;SDS011;39539;52.202;9.876;2023-06-26T11:42:52;7.78;;;7.07;;
19675;SDS011;39539;52.202;9.876;2023-06-26T11:45:19;8.30;;;7.50;;
19675;SDS011;39539;52.202;9.876;2023-06-26T11:47:46;7.60;;;7.00;;
19675;SDS011;39539;52.202;9.876;2023-06-26T11:50:15;7.22;;;6.72;;
19675;SDS011;39539;52.202;9.876;2023-06-26T11:52:45;7.68;;;7.10;;
19675;SDS011;39539;52.202;9.876;2023-06-26T11:55:18;8.30;;;7.50;;
19675;SDS011;39539;52.202;9.876;2023-06-26T11:57:49;8.10;;;7.50;;
19675;SDS011;39539;52.202;9.876;2023-06-26T12:00:28;8.68;;;7.88;;
19675;SDS011;39539;52.202;9.876;2023-06-26T12:02:55;8.02;;;7.32;;
19675;SDS011;39539;52.202;9.876;2023-06-26T12:08:10;9.82;;;9.07;;
19675;SDS011;39539;52.202;9.876;2023-06-26T12:10:36;8.82;;;8.13;;
19675;SDS011;39539;52.202;9.876;2023-06-26T12:13:02;8.10;;;7.50;;
19675;SDS011;39539;52.202;9.876;2023-06-26T12:15:28;8.75;;;7.93;;
19675;SDS011;39539;52.202;9.876;2023-06-26T12:17:55;9.02;;;8.13;;
19675;SDS011;39539;52.202;9.876;2023-06-26T12:20:22;11.40;;;10.43;;
19675;SDS011;39539;52.202;9.876;2023-06-26T12:22:50;10.48;;;9.77;;
19675;SDS011;39539;52.202;9.876;2023-06-26T12:25:21;9.63;;;8.88;;
19675;SDS011;39539;52.202;9.876;2023-06-26T12:27:51;8.93;;;8.32;;
19675;SDS011;39539;52.202;9.876;2023-06-26T12:30:17;7.20;;;6.68;;
19675;SDS011;39539;52.202;9.876;2023-06-26T12:32:49;7.22;;;6.50;;
19675;SDS011;39539;52.202;9.876;2023-06-26T12:35:14;9.98;;;9.15;;
19675;SDS011;39539;52.202;9.876;2023-06-26T12:37:41;5.75;;;5.38;;
19675;SDS011;39539;52.202;9.876;2023-06-26T12:40:18;6.40;;;5.82;;
19675;SDS011;39539;52.202;9.876;2023-06-26T12:42:47;5.55;;;4.90;;
19675;SDS011;39539;52.202;9.876;2023-06-26T12:45:13;6.47;;;5.55;;
19675;SDS011;39539;52.202;9.876;2023-06-26T12:47:40;4.80;;;4.40;;
19675;SDS011;39539;52.202;9.876;2023-06-26T12:50:18;5.10;;;4.60;;
19675;SDS011;39539;52.202;9.876;2023-06-26T12:52:43;5.72;;;5.22;;
19675;SDS011;39539;52.202;9.876;2023-06-26T12:55:10;9.25;;;8.13;;
19675;SDS011;39539;52.202;9.876;2023-06-26T12:57:38;5.38;;;4.97;;
19675;SDS011;39539;52.202;9.876;2023-06-26T13:00:06;5.07;;;4.53;;
19675;SDS011;39539;52.202;9.876;2023-06-26T13:02:36;4.63;;;4.22;;
19675;SDS011;39539;52.202;9.876;2023-06-26T13:05:02;7.88;;;4.88;;
19675;SDS011;39539;52.202;9.876;2023-06-26T13:07:28;5.00;;;4.20;;
19675;SDS011;39539;52.202;9.876;2023-06-26T13:09:55;4.68;;;4.18;;
19675;SDS011;39539;52.202;9.876;2023-06-26T13:12:21;5.55;;;4.97;;
19675;SDS011;39539;52.202;9.876;2023-06-26T13:14:46;4.43;;;4.03;;
19675;SDS011;39539;52.202;9.876;2023-06-26T13:17:11;4.03;;;3.72;;
19675;SDS011;39539;52.202;9.876;2023-06-26T13:19:46;4.38;;;4.07;;
19675;SDS011;39539;52.202;9.876;2023-06-26T13:22:12;3.70;;;3.40;;
19675;SDS011;39539;52.202;9.876;2023-06-26T13:24:37;4.05;;;3.72;;
19675;SDS011;39539;52.202;9.876;2023-06-26T13:27:09;3.75;;;3.35;;
19675;SDS011;39539;52.202;9.876;2023-06-26T13:29:34;3.00;;;2.80;;
19675;SDS011;39539;52.202;9.876;2023-06-26T13:32:01;4.60;;;3.28;;
19675;SDS011;39539;52.202;9.876;2023-06-26T13:34:32;6.78;;;3.08;;
19675;SDS011;39539;52.202;9.876;2023-06-26T13:36:59;3.20;;;2.80;;
19675;SDS011;39539;52.202;9.876;2023-06-26T13:39:28;3.13;;;2.83;;
19675;SDS011;39539;52.202;9.876;2023-06-26T13:41:55;3.40;;;3.20;;
19675;SDS011;39539;52.202;9.876;2023-06-26T13:44:30;3.80;;;3.50;;
19675;SDS011;39539;52.202;9.876;2023-06-26T13:47:00;3.65;;;3.38;;
19675;SDS011;39539;52.202;9.876;2023-06-26T13:49:26;2.92;;;2.72;;
19675;SDS011;39539;52.202;9.876;2023-06-26T13:51:51;2.83;;;2.60;;
19675;SDS011;39539;52.202;9.876;2023-06-26T13:54:18;3.78;;;3.20;;
19675;SDS011;39539;52.202;9.876;2023-06-26T13:56:43;3.67;;;2.90;;
19675;SDS011;39539;52.202;9.876;2023-06-26T13:59:09;3.92;;;3.58;;
19675;SDS011;39539;52.202;9.876;2023-06-26T14:01:34;2.55;;;2.35;;
19675;SDS011;39539;52.202;9.876;2023-06-26T14:03:59;3.20;;;2.83;;
19675;SDS011;39539;52.202;9.876;2023-06-26T14:06:25;3.08;;;2.30;;
19675;SDS011;39539;52.202;9.876;2023-06-26T14:08:59;2.70;;;2.50;;
19675;SDS011;39539;52.202;9.876;2023-06-26T14:11:25;4.70;;;3.08;;
19675;SDS011;39539;52.202;9.876;2023-06-26T14:13:50;3.92;;;2.80;;
19675;SDS011;39539;52.202;9.876;2023-06-26T14:16:17;2.65;;;2.45;;
19675;SDS011;39539;52.202;9.876;2023-06-26T14:18:44;2.47;;;2.20;;
19675;SDS011;39539;52.202;9.876;2023-06-26T14:21:09;2.95;;;2.58;;
19675;SDS011;39539;52.202;9.876;2023-06-26T14:23:35;3.72;;;3.38;;
19675;SDS011;39539;52.202;9.876;2023-06-26T14:26:01;2.80;;;2.60;;
19675;SDS011;39539;52.202;9.876;2023-06-26T14:28:28;3.30;;;2.08;;
19675;SDS011;39539;52.202;9.876;2023-06-26T14:30:53;4.18;;;2.85;;
19675;SDS011;39539;52.202;9.876;2023-06-26T14:33:19;2.55;;;2.35;;
19675;SDS011;39539;52.202;9.876;2023-06-26T14:35:45;4.72;;;2.97;;
19675;SDS011;39539;52.202;9.876;2023-06-26T14:38:11;3.55;;;2.78;;
19675;SDS011;39539;52.202;9.876;2023-06-26T14:40:37;2.70;;;2.30;;
19675;SDS011;39539;52.202;9.876;2023-06-26T14:43:03;4.30;;;2.25;;
19675;SDS011;39539;52.202;9.876;2023-06-26T14:45:31;2.53;;;2.33;;
19675;SDS011;39539;52.202;9.876;2023-06-26T14:47:57;2.83;;;2.63;;
19675;SDS011;39539;52.202;9.876;2023-06-26T14:50:22;2.88;;;2.53;;
19675;SDS011;39539;52.202;9.876;2023-06-26T14:52:48;3.15;;;2.90;;
19675;SDS011;39539;52.202;9.876;2023-06-26T14:55:13;4.10;;;2.33;;
19675;SDS011;39539;52.202;9.876;2023-06-26T14:57:38;3.58;;;2.50;;
19675;SDS011;39539;52.202;9.876;2023-06-26T15:00:10;2.75;;;2.50;;
19675;SDS011;39539;52.202;9.876;2023-06-26T15:02:36;6.85;;;2.30;;
19675;SDS011;39539;52.202;9.876;2023-06-26T15:05:03;2.53;;;2.33;;
19675;SDS011;39539;52.202;9.876;2023-06-26T15:07:30;2.70;;;2.42;;
19675;SDS011;39539;52.202;9.876;2023-06-26T15:10:02;2.47;;;2.28;;
19675;SDS011;39539;52.202;9.876;2023-06-26T15:12:37;2.65;;;2.45;;
19675;SDS011;39539;52.202;9.876;2023-06-26T15:15:04;2.40;;;2.20;;
19675;SDS011;39539;52.202;9.876;2023-06-26T15:17:30;2.95;;;2.10;;
19675;SDS011;39539;52.202;9.876;2023-06-26T15:20:00;2.78;;;2.25;;
19675;SDS011;39539;52.202;9.876;2023-06-26T15:22:26;4.60;;;2.25;;
19675;SDS011;39539;52.202;9.876;2023-06-26T15:24:52;4.88;;;2.20;;
19675;SDS011;39539;52.202;9.876;2023-06-26T15:27:20;2.47;;;2.28;;
19675;SDS011;39539;52.202;9.876;2023-06-26T15:29:47;2.10;;;2.00;;
19675;SDS011;39539;52.202;9.876;2023-06-26T15:32:14;2.40;;;1.88;;
19675;SDS011;39539;52.202;9.876;2023-06-26T15:34:42;3.45;;;2.03;;
19675;SDS011;39539;52.202;9.876;2023-06-26T15:37:07;2.13;;;1.92;;
19675;SDS011;39539;52.202;9.876;2023-06-26T15:39:33;2.42;;;2.10;;
19675;SDS011;39539;52.202;9.876;2023-06-26T15:41:58;2.65;;;2.20;;
19675;SDS011;39539;52.202;9.876;2023-06-26T15:44:25;2.47;;;2.00;;
19675;SDS011;39539;52.202;9.876;2023-06-26T15:46:51;3.85;;;2.38;;
19675;SDS011;39539;52.202;9.876;2023-06-26T15:49:17;3.58;;;2.22;;
19675;SDS011;39539;52.202;9.876;2023-06-26T15:51:43;2.78;;;2.10;;
19675;SDS011;39539;52.202;9.876;2023-06-26T15:54:10;2.85;;;2.65;;
19675;SDS011;39539;52.202;9.876;2023-06-26T15:56:35;2.78;;;2.22;;
19675;SDS011;39539;52.202;9.876;2023-06-26T15:59:01;2.88;;;2.10;;
19675;SDS011;39539;52.202;9.876;2023-06-26T16:01:26;3.10;;;2.47;;
19675;SDS011;39539;52.202;9.876;2023-06-26T16:03:51;3.13;;;2.42;;
19675;SDS011;39539;52.202;9.876;2023-06-26T16:06:17;4.85;;;2.10;;
19675;SDS011;39539;52.202;9.876;2023-06-26T16:08:42;3.00;;;2.42;;
19675;SDS011;39539;52.202;9.876;2023-06-26T16:11:09;2.75;;;2.25;;
19675;SDS011;39539;52.202;9.876;2023-06-26T16:13:35;3.45;;;2.10;;
19675;SDS011;39539;52.202;9.876;2023-06-26T16:16:00;2.95;;;2.10;;
19675;SDS011;39539;52.202;9.876;2023-06-26T16:18:25;4.97;;;2.40;;
19675;SDS011;39539;52.202;9.876;2023-06-26T16:20:51;2.53;;;2.33;;
19675;SDS011;39539;52.202;9.876;2023-06-26T16:23:17;4.75;;;2.13;;
19675;SDS011;39539;52.202;9.876;2023-06-26T16:25:43;3.50;;;2.25;;
19675;SDS011;39539;52.202;9.876;2023-06-26T16:28:09;3.80;;;2.80;;
19675;SDS011;39539;52.202;9.876;2023-06-26T16:30:34;4.20;;;2.17;;
19675;SDS011;39539;52.202;9.876;2023-06-26T16:32:59;3.45;;;2.00;;
19675;SDS011;39539;52.202;9.876;2023-06-26T16:35:26;2.38;;;2.03;;
19675;SDS011;39539;52.202;9.876;2023-06-26T16:37:52;2.22;;;2.03;;
19675;SDS011;39539;52.202;9.876;2023-06-26T16:40:17;3.20;;;2.10;;
19675;SDS011;39539;52.202;9.876;2023-06-26T16:42:42;2.88;;;1.98;;
19675;SDS011;39539;52.202;9.876;2023-06-26T16:45:08;5.50;;;2.30;;
19675;SDS011;39539;52.202;9.876;2023-06-26T16:47:34;2.08;;;1.88;;
19675;SDS011;39539;52.202;9.876;2023-06-26T16:50:00;4.05;;;1.90;;
19675;SDS011;39539;52.202;9.876;2023-06-26T16:52:26;3.03;;;2.00;;
19675;SDS011;39539;52.202;9.876;2023-06-26T16:54:52;3.03;;;2.05;;
19675;SDS011;39539;52.202;9.876;2023-06-26T16:57:17;2.97;;;2.50;;
19675;SDS011;39539;52.202;9.876;2023-06-26T16:59:42;2.47;;;1.70;;
19675;SDS011;39539;52.202;9.876;2023-06-26T17:02:08;2.60;;;2.00;;
19675;SDS011;39539;52.202;9.876;2023-06-26T17:04:33;4.43;;;2.08;;
19675;SDS011;39539;52.202;9.876;2023-06-26T17:06:58;4.78;;;1.58;;
19675;SDS011;39539;52.202;9.876;2023-06-26T17:09:24;3.42;;;1.90;;
19675;SDS011;39539;52.202;9.876;2023-06-26T17:11:52;3.25;;;1.95;;
19675;SDS011;39539;52.202;9.876;2023-06-26T17:14:18;3.63;;;1.83;;
19675;SDS011;39539;52.202;9.876;2023-06-26T17:16:43;2.50;;;1.83;;
19675;SDS011;39539;52.202;9.876;2023-06-26T17:19:08;3.53;;;1.80;;
19675;SDS011;39539;52.202;9.876;2023-06-26T17:21:35;2.65;;;1.60;;
19675;SDS011;39539;52.202;9.876;2023-06-26T17:24:02;2.33;;;1.67;;
19675;SDS011;39539;52.202;9.876;2023-06-26T17:26:28;3.58;;;2.03;;
19675;SDS011;39539;52.202;9.876;2023-06-26T17:28:55;3.60;;;1.83;;
19675;SDS011;39539;52.202;9.876;2023-06-26T17:31:20;3.38;;;1.70;;
19675;SDS011;39539;52.202;9.876;2023-06-26T17:33:46;2.80;;;1.75;;
19675;SDS011;39539;52.202;9.876;2023-06-26T17:36:11;4.45;;;1.80;;
19675;SDS011;39539;52.202;9.876;2023-06-26T17:38:36;2.67;;;1.60;;
19675;SDS011;39539;52.202;9.876;2023-06-26T17:41:03;3.35;;;1.63;;
19675;SDS011;39539;52.202;9.876;2023-06-26T17:43:28;2.50;;;1.70;;
19675;SDS011;39539;52.202;9.876;2023-06-26T17:45:53;2.40;;;1.80;;
19675;SDS011;39539;52.202;9.876;2023-06-26T17:48:19;3.33;;;1.70;;
19675;SDS011;39539;52.202;9.876;2023-06-26T17:50:46;2.00;;;1.63;;
19675;SDS011;39539;52.202;9.876;2023-06-26T17:53:11;5.93;;;1.90;;
19675;SDS011;39539;52.202;9.876;2023-06-26T17:55:36;2.53;;;2.00;;
19675;SDS011;39539;52.202;9.876;2023-06-26T17:58:02;3.22;;;1.73;;
19675;SDS011;39539;52.202;9.876;2023-06-26T18:00:27;3.53;;;1.63;;
19675;SDS011;39539;52.202;9.876;2023-06-26T18:02:53;2.50;;;1.52;;
19675;SDS011;39539;52.202;9.876;2023-06-26T18:05:21;3.45;;;1.52;;
19675;SDS011;39539;52.202;9.876;2023-06-26T18:07:47;1.70;;;1.60;;
19675;SDS011;39539;52.202;9.876;2023-06-26T18:10:13;2.72;;;1.70;;
19675;SDS011;39539;52.202;9.876;2023-06-26T18:12:38;1.95;;;1.55;;
19675;SDS011;39539;52.202;9.876;2023-06-26T18:15:04;3.20;;;1.75;;
19675;SDS011;39539;52.202;9.876;2023-06-26T18:17:30;2.85;;;1.42;;
19675;SDS011;39539;52.202;9.876;2023-06-26T18:19:56;3.60;;;1.50;;
19675;SDS011;39539;52.202;9.876;2023-06-26T18:22:21;1.90;;;1.45;;
19675;SDS011;39539;52.202;9.876;2023-06-26T18:24:46;3.00;;;1.60;;
19675;SDS011;39539;52.202;9.876;2023-06-26T18:27:12;2.72;;;1.80;;
19675;SDS011;39539;52.202;9.876;2023-06-26T18:29:37;1.55;;;1.42;;
19675;SDS011;39539;52.202;9.876;2023-06-26T18:32:03;2.88;;;1.55;;
19675;SDS011;39539;52.202;9.876;2023-06-26T18:34:29;2.28;;;1.30;;
19675;SDS011;39539;52.202;9.876;2023-06-26T18:36:54;3.07;;;1.53;;
19675;SDS011;39539;52.202;9.876;2023-06-26T18:39:21;3.10;;;1.50;;
19675;SDS011;39539;52.202;9.876;2023-06-26T18:41:47;2.55;;;1.20;;
19675;SDS011;39539;52.202;9.876;2023-06-26T18:44:13;1.45;;;1.27;;
19675;SDS011;39539;52.202;9.876;2023-06-26T18:46:38;2.95;;;1.40;;
19675;SDS011;39539;52.202;9.876;2023-06-26T18:49:04;3.40;;;1.30;;
19675;SDS011;39539;52.202;9.876;2023-06-26T18:51:30;1.75;;;1.10;;
19675;SDS011;39539;52.202;9.876;2023-06-26T18:53:57;2.42;;;1.33;;
19675;SDS011;39539;52.202;9.876;2023-06-26T18:56:32;2.15;;;1.30;;
19675;SDS011;39539;52.202;9.876;2023-06-26T18:58:59;3.17;;;1.40;;
19675;SDS011;39539;52.202;9.876;2023-06-26T19:01:25;3.42;;;1.50;;
19675;SDS011;39539;52.202;9.876;2023-06-26T19:03:51;2.05;;;1.23;;
19675;SDS011;39539;52.202;9.876;2023-06-26T19:06:17;2.78;;;1.42;;
19675;SDS011;39539;52.202;9.876;2023-06-26T19:08:42;2.58;;;1.52;;
19675;SDS011;39539;52.202;9.876;2023-06-26T19:11:08;3.30;;;1.30;;
19675;SDS011;39539;52.202;9.876;2023-06-26T19:13:33;2.70;;;1.30;;
19675;SDS011;39539;52.202;9.876;2023-06-26T19:15:59;2.97;;;1.13;;
19675;SDS011;39539;52.202;9.876;2023-06-26T19:18:25;1.70;;;1.20;;
19675;SDS011;39539;52.202;9.876;2023-06-26T19:20:51;1.60;;;1.30;;
19675;SDS011;39539;52.202;9.876;2023-06-26T19:23:17;1.73;;;1.05;;
19675;SDS011;39539;52.202;9.876;2023-06-26T19:25:42;1.27;;;1.00;;
19675;SDS011;39539;52.202;9.876;2023-06-26T19:28:09;2.42;;;1.30;;
19675;SDS011;39539;52.202;9.876;2023-06-26T19:30:37;2.58;;;1.30;;
19675;SDS011;39539;52.202;9.876;2023-06-26T19:33:03;3.00;;;1.50;;
19675;SDS011;39539;52.202;9.876;2023-06-26T19:35:28;2.20;;;1.25;;
19675;SDS011;39539;52.202;9.876;2023-06-26T19:37:54;3.33;;;1.05;;
19675;SDS011;39539;52.202;9.876;2023-06-26T19:40:19;2.85;;;1.10;;
19675;SDS011;39539;52.202;9.876;2023-06-26T19:42:45;2.05;;;1.00;;
19675;SDS011;39539;52.202;9.876;2023-06-26T19:45:11;1.77;;;1.23;;
19675;SDS011;39539;52.202;9.876;2023-06-26T19:47:37;2.40;;;1.40;;
19675;SDS011;39539;52.202;9.876;2023-06-26T19:50:05;1.80;;;1.17;;
19675;SDS011;39539;52.202;9.876;2023-06-26T19:52:31;1.60;;;1.05;;
19675;SDS011;39539;52.202;9.876;2023-06-26T19:54:57;2.28;;;1.30;;
19675;SDS011;39539;52.202;9.876;2023-06-26T19:57:22;2.80;;;1.17;;
19675;SDS011;39539;52.202;9.876;2023-06-26T19:59:47;2.80;;;1.40;;
19675;SDS011;39539;52.202;9.876;2023-06-26T20:02:13;2.00;;;1.35;;
19675;SDS011;39539;52.202;9.876;2023-06-26T20:04:38;2.85;;;1.27;;
19675;SDS011;39539;52.202;9.876;2023-06-26T20:07:03;1.73;;;1.23;;
19675;SDS011;39539;52.202;9.876;2023-06-26T20:09:29;2.95;;;1.45;;
19675;SDS011;39539;52.202;9.876;2023-06-26T20:11:56;3.20;;;1.45;;
19675;SDS011;39539;52.202;9.876;2023-06-26T20:14:25;1.83;;;1.25;;
19675;SDS011;39539;52.202;9.876;2023-06-26T20:16:51;2.47;;;1.10;;
19675;SDS011;39539;52.202;9.876;2023-06-26T20:19:17;2.63;;;1.45;;
19675;SDS011;39539;52.202;9.876;2023-06-26T20:21:42;2.75;;;1.58;;
19675;SDS011;39539;52.202;9.876;2023-06-26T20:24:07;2.30;;;1.27;;
19675;SDS011;39539;52.202;9.876;2023-06-26T20:26:33;3.30;;;1.25;;
19675;SDS011;39539;52.202;9.876;2023-06-26T20:28:58;3.03;;;1.50;;
19675;SDS011;39539;52.202;9.876;2023-06-26T20:31:23;2.28;;;1.95;;
19675;SDS011;39539;52.202;9.876;2023-06-26T20:33:49;2.22;;;2.00;;
19675;SDS011;39539;52.202;9.876;2023-06-26T20:36:14;2.50;;;2.20;;
19675;SDS011;39539;52.202;9.876;2023-06-26T20:38:39;4.90;;;3.30;;
19675;SDS011;39539;52.202;9.876;2023-06-26T20:41:05;3.53;;;3.03;;
19675;SDS011;39539;52.202;9.876;2023-06-26T20:43:30;4.38;;;3.45;;
19675;SDS011;39539;52.202;9.876;2023-06-26T20:45:56;4.65;;;3.97;;
19675;SDS011;39539;52.202;9.876;2023-06-26T20:48:22;6.10;;;4.68;;
19675;SDS011;39539;52.202;9.876;2023-06-26T20:50:48;6.13;;;5.53;;
19675;SDS011;39539;52.202;9.876;2023-06-26T20:53:14;9.18;;;6.18;;
19675;SDS011;39539;52.202;9.876;2023-06-26T20:55:40;9.27;;;6.93;;
19675;SDS011;39539;52.202;9.876;2023-06-26T20:58:05;6.50;;;5.80;;
19675;SDS011;39539;52.202;9.876;2023-06-26T21:00:31;7.30;;;5.70;;
19675;SDS011;39539;52.202;9.876;2023-06-26T21:02:57;7.30;;;4.35;;
19675;SDS011;39539;52.202;9.876;2023-06-26T21:05:23;4.60;;;3.80;;
19675;SDS011;39539;52.202;9.876;2023-06-26T21:07:48;4.00;;;3.55;;
19675;SDS011;39539;52.202;9.876;2023-06-26T21:10:13;3.38;;;2.45;;
19675;SDS011;39539;52.202;9.876;2023-06-26T21:12:38;3.35;;;1.90;;
19675;SDS011;39539;52.202;9.876;2023-06-26T21:15:04;4.35;;;2.35;;
19675;SDS011;39539;52.202;9.876;2023-06-26T21:17:30;13.52;;;2.60;;
19675;SDS011;39539;52.202;9.876;2023-06-26T21:19:57;3.65;;;2.00;;